Terminal Aerodrome Forecast
Issued by NWS Charleston, WV

Current Version | Previous Version | Text Only | Print | Product List | Glossary Off
Versions: 1 2 3 4 5 6 7 8 9 10 11 12 13 14 15 16 17 18 19 20 21 22 23 24 25 26 27 28 29

000
FTUS41 KRLX 261729
TAFEKN
TAF
KEKN 261729Z 2618/2718 19004KT P6SM VCSH OVC040
     FM270500 19005KT P6SM BKN080
     FM270900 20004KT P6SM VCTS BKN060CB
     FM271100 22004KT P6SM SHRA VCTS BKN040CB
     FM271200 23004KT 6SM SHRA BR VCTS BKN035CB
     FM271700 23006KT P6SM SHRA VCTS BKN040CB=

USA.gov is the U.S. government's official web portal to all federal, state and local government web resources and services.